This is the latest recevied weather packets stored in our database for station/object W9LRT-WX. If no packets are shown the sender has not sent any weather packets the latest 10 day(s).
| Time | Temp. | Humidity | Pressure | Rain* | Wind** | Luminosity | Snow |
|---|---|---|---|---|---|---|---|
| 1777827904 | 15° C | 53% | 1012.4 hPa | 0 mm | - | 557 W/m² | - |
| 1777827004 | 14.44° C | 53% | 1012.7 hPa | 0 mm | - | 464 W/m² | - |
| 1777826105 | 14.44° C | 53% | 1012.8 hPa | 0 mm | - | 550 W/m² | - |
| 1777825207 | 14.44° C | 53% | 1013.1 hPa | 0 mm | - | 668 W/m² | - |
| 1777824305 | 13.89° C | 52% | 1013.1 hPa | 0 mm | - | 626 W/m² | - |
| 1777823405 | 13.89° C | 53% | 1013.2 hPa | 0 mm | - | 615 W/m² | - |
| 1777822505 | 13.33° C | 52% | 1013.3 hPa | 0 mm | - | 580 W/m² | - |
| 1777821605 | 13.33° C | 54% | 1013.5 hPa | 0 mm | - | 548 W/m² | - |
| 1777820705 | 13.33° C | 54% | 1013.8 hPa | 0 mm | - | 657 W/m² | - |
| 1777819805 | 12.22° C | 55% | 1014 hPa | 0 mm | - | 534 W/m² | - |
| 1777818904 | 11.67° C | 55% | 1014 hPa | 0 mm | - | 522 W/m² | - |
| 1777818004 | 11.67° C | 56% | 1014.1 hPa | 0 mm | - | 464 W/m² | - |
| 1777817104 | 11.67° C | 56% | 1014.1 hPa | 0 mm | - | 468 W/m² | - |
| 1777816205 | 11.67° C | 55% | 1014.2 hPa | 0 mm | - | 543 W/m² | - |
| 1777815302 | 10.56° C | 58% | 1014.3 hPa | 0 mm | - | 410 W/m² | - |
| 1777814402 | 9.44° C | 59% | 1014.3 hPa | 0 mm | - | 230 W/m² | - |
| 1777813504 | 9.44° C | 60% | 1014.4 hPa | 0 mm | - | 362 W/m² | - |
| 1777812601 | 8.33° C | 62% | 1014.4 hPa | 0 mm | - | 279 W/m² | - |
| 1777811701 | 7.78° C | 63% | 1014.3 hPa | 0 mm | - | 218 W/m² | - |
| 1777810802 | 7.78° C | 64% | 1014.3 hPa | 0 mm | - | 169 W/m² | - |
| 1777809902 | 7.22° C | 64% | 1014.3 hPa | 0 mm | - | 148 W/m² | - |
| 1777809000 | 6.67° C | 66% | 1014.2 hPa | 0 mm | - | 137 W/m² | - |
| 1777808103 | 6.11° C | 66% | 1014.1 hPa | 0 mm | - | 86 W/m² | - |
| 1777807202 | 5.56° C | 67% | 1014.1 hPa | 0 mm | - | 47 W/m² | - |
| 1777806302 | 5.56° C | 68% | 1014.1 hPa | 0 mm | - | 21 W/m² | - |
* Rain latest hour (hover to see other rain measurements)
** Current wind speed in m/s (hover to see current wind gust speed)